MSC Divina — 3FFA5 — position and weather

sailwx.info

Track history (hours):
 
Tides and Currents Weather Stations Pressure Air Temp Water Temp Dewpoint Dewpoint Depression Visibility Wind Speed Wind Dir Waves Ship Positions

MSC Divina

Last reported at 2017-Mar-30 00:10 UTC. Time now 2017-Mar-30 04:54 UTC.
Position N 20°40' W 086°53'.

Length 333 m; draft 8.6 m.

Type: Passenger vessel. MMSI: 373178000.

Date/timePositionNaut miles runAvg speedWind from/ knotsBaromVisibWave heightAir tempDewpointWater temp
2017-Mar-30 00:10N 20°40' W 086°53'1016.6
2017-Mar-29 23:33N 20°31' W 086°58'1 0.9
2017-Mar-29 22:33N 20°31' W 086°57'0 0.0
2017-Mar-29 21:33N 20°31' W 086°57'0 0.0
2017-Mar-29 20:32N 20°31' W 086°57'0 0.0
2017-Mar-29 19:32N 20°31' W 086°57'0 0.0
2017-Mar-29 18:32N 20°31' W 086°57'0 0.0
2017-Mar-29 17:32N 20°31' W 086°57'0 0.0
2017-Mar-29 16:32N 20°31' W 086°57'0 0.0
2017-Mar-29 15:32N 20°31' W 086°57'0 0.0
2017-Mar-29 14:34N 20°31' W 086°57'9 9.0
2017-Mar-29 13:33N 20°38' W 086°52'  
2017-Mar-26 01:15N 25°20' W 079°53'1218.0
2017-Mar-26 00:33N 25°32' W 079°58'1615.6
2017-Mar-25 23:33N 25°46' W 080°06'4 3.8
2017-Mar-25 22:32N 25°47' W 080°10'0 0.0
2017-Mar-25 21:30N 25°47' W 080°10'0 0.0
2017-Mar-25 20:30N 25°47' W 080°10'0 0.0
2017-Mar-25 19:32N 25°47' W 080°10'0 0.0
2017-Mar-25 18:33N 25°47' W 080°10'0 0.0
2017-Mar-25 17:32N 25°47' W 080°10'0 0.0
2017-Mar-25 16:33N 25°47' W 080°10'0 0.0
2017-Mar-25 15:33N 25°47' W 080°10'0 0.0
2017-Mar-25 14:32N 25°47' W 080°10'0 0.0
2017-Mar-25 13:33N 25°47' W 080°10'0 0.0
2017-Mar-25 12:32N 25°47' W 080°10'0 0.0
2017-Mar-25 11:33N 25°47' W 080°10'0 0.0
2017-Mar-25 10:32N 25°47' W 080°10'1 0.6
2017-Mar-25 09:34N 25°47' W 080°11'6 6.4
2017-Mar-25 08:34N 25°46' W 080°04'1313.0
2017-Mar-25 07:33N 25°52' W 079°51'1716.9
2017-Mar-25 06:33N 25°60' W 079°34'  
2017-Mar-22 21:04N 18°36' W 066°14'918.0
2017-Mar-22 20:33N 18°29' W 066°08'1 1.5
2017-Mar-22 19:32N 18°28' W 066°07'0 0.0
2017-Mar-22 18:32N 18°28' W 066°07'0 0.0
2017-Mar-22 17:33N 18°28' W 066°07'0 0.0
2017-Mar-22 16:33N 18°28' W 066°07'0 0.0
2017-Mar-22 15:33N 18°28' W 066°07'0 0.0
2017-Mar-22 14:32N 18°28' W 066°07'0 0.0
2017-Mar-22 13:31N 18°28' W 066°07'0 0.0
2017-Mar-22 12:28N 18°28' W 066°07'0 0.5
2017-Mar-22 11:33N 18°27' W 066°07'8 8.5
2017-Mar-22 10:33N 18°35' W 066°02'6414.7
2017-Mar-22 06:14N 18°12' W 064°59'1015.4
2017-Mar-22 05:33N 18°10' W 064°48'52 2.4
2017-Mar-21 07:16N 18°39' W 064°03'1715.3
2017-Mar-21 06:10N 18°50' W 064°16'  
Track history (hours):
 
Tides and Currents Weather Stations Pressure Air Temp Water Temp Dewpoint Dewpoint Depression Visibility Wind Speed Wind Dir Waves Ship Positions

MSC Divina

Last reported at 2017-Mar-30 00:10 UTC. Time now 2017-Mar-30 04:54 UTC.
Position N 20°40' W 086°53'.

Length 333 m; draft 8.6 m.

Type: Passenger vessel. MMSI: 373178000.

Date/timePositionNaut miles runAvg speedWind from/ knotsBaromVisibWave heightAir tempDewpointWater temp
2017-Mar-30 00:10N 20°40' W 086°53'1016.6
2017-Mar-29 23:33N 20°31' W 086°58'1 0.9
2017-Mar-29 22:33N 20°31' W 086°57'0 0.0
2017-Mar-29 21:33N 20°31' W 086°57'0 0.0
2017-Mar-29 20:32N 20°31' W 086°57'0 0.0
2017-Mar-29 19:32N 20°31' W 086°57'0 0.0
2017-Mar-29 18:32N 20°31' W 086°57'0 0.0
2017-Mar-29 17:32N 20°31' W 086°57'0 0.0
2017-Mar-29 16:32N 20°31' W 086°57'0 0.0
2017-Mar-29 15:32N 20°31' W 086°57'0 0.0
2017-Mar-29 14:34N 20°31' W 086°57'9 9.0
2017-Mar-29 13:33N 20°38' W 086°52'  
2017-Mar-26 01:15N 25°20' W 079°53'1218.0
2017-Mar-26 00:33N 25°32' W 079°58'1615.6
2017-Mar-25 23:33N 25°46' W 080°06'4 3.8
2017-Mar-25 22:32N 25°47' W 080°10'0 0.0
2017-Mar-25 21:30N 25°47' W 080°10'0 0.0
2017-Mar-25 20:30N 25°47' W 080°10'0 0.0
2017-Mar-25 19:32N 25°47' W 080°10'0 0.0
2017-Mar-25 18:33N 25°47' W 080°10'0 0.0
2017-Mar-25 17:32N 25°47' W 080°10'0 0.0
2017-Mar-25 16:33N 25°47' W 080°10'0 0.0
2017-Mar-25 15:33N 25°47' W 080°10'0 0.0
2017-Mar-25 14:32N 25°47' W 080°10'0 0.0
2017-Mar-25 13:33N 25°47' W 080°10'0 0.0
2017-Mar-25 12:32N 25°47' W 080°10'0 0.0
2017-Mar-25 11:33N 25°47' W 080°10'0 0.0
2017-Mar-25 10:32N 25°47' W 080°10'1 0.6
2017-Mar-25 09:34N 25°47' W 080°11'6 6.4
2017-Mar-25 08:34N 25°46' W 080°04'1313.0
2017-Mar-25 07:33N 25°52' W 079°51'1716.9
2017-Mar-25 06:33N 25°60' W 079°34'  
2017-Mar-22 21:04N 18°36' W 066°14'918.0
2017-Mar-22 20:33N 18°29' W 066°08'1 1.5
2017-Mar-22 19:32N 18°28' W 066°07'0 0.0
2017-Mar-22 18:32N 18°28' W 066°07'0 0.0
2017-Mar-22 17:33N 18°28' W 066°07'0 0.0
2017-Mar-22 16:33N 18°28' W 066°07'0 0.0
2017-Mar-22 15:33N 18°28' W 066°07'0 0.0
2017-Mar-22 14:32N 18°28' W 066°07'0 0.0
2017-Mar-22 13:31N 18°28' W 066°07'0 0.0
2017-Mar-22 12:28N 18°28' W 066°07'0 0.5
2017-Mar-22 11:33N 18°27' W 066°07'8 8.5
2017-Mar-22 10:33N 18°35' W 066°02'6414.7
2017-Mar-22 06:14N 18°12' W 064°59'1015.4
2017-Mar-22 05:33N 18°10' W 064°48'52 2.4
2017-Mar-21 07:16N 18°39' W 064°03'1715.3
2017-Mar-21 06:10N 18°50' W 064°16'  

Dump ship's entire track history